Time,TemperatureF,DewpointF,PressureIn,WindDirection,WindDirectionDegrees,WindSpeedMPH,WindSpeedGustMPH,Humidity,HourlyPrecipIn,Conditions,Clouds,dailyrainin,SoftwareType,DateUTC
2013-04-30 00:00:00,61.7,60.0,29.98,SSW,194,0.0,1.0,94,0.00,,,1.22,Wunderground v.1.15,2013-04-30 04:00:00,
2013-04-30 00:05:00,61.6,59.9,29.98,SSW,194,0.0,1.0,94,0.00,,,0.00,Wunderground v.1.15,2013-04-30 04:05:00,
2013-04-30 00:10:00,61.6,59.9,29.98,SSW,194,0.0,1.0,94,0.00,,,0.00,Wunderground v.1.15,2013-04-30 04:10:00,
2013-04-30 00:15:00,61.5,59.8,29.98,SSW,194,0.0,1.0,94,0.00,,,0.00,Wunderground v.1.15,2013-04-30 04:15:00,
2013-04-30 00:20:00,61.4,59.7,29.98,SSW,194,0.0,1.0,94,0.00,,,0.00,Wunderground v.1.15,2013-04-30 04:20:00,
2013-04-30 00:30:00,61.3,59.6,29.98,SSW,194,0.0,1.0,94,0.00,,,0.00,Wunderground v.1.15,2013-04-30 04:30:00,
2013-04-30 00:35:00,61.2,59.5,29.97,SSW,194,0.0,1.0,94,0.00,,,0.00,Wunderground v.1.15,2013-04-30 04:35:00,
2013-04-30 00:40:00,61.1,59.4,29.98,SSW,194,0.0,1.0,94,0.00,,,0.00,Wunderground v.1.15,2013-04-30 04:40:00,
2013-04-30 00:45:00,61.1,59.4,29.98,SSW,194,0.0,1.0,94,0.00,,,0.00,Wunderground v.1.15,2013-04-30 04:45:00,
2013-04-30 00:50:00,61.0,59.3,29.98,SSW,194,0.0,1.0,94,0.00,,,0.00,Wunderground v.1.15,2013-04-30 04:50:00,
2013-04-30 01:00:00,60.8,59.1,29.98,SSW,194,0.0,1.0,94,0.00,,,0.00,Wunderground v.1.15,2013-04-30 05:00:00,
2013-04-30 01:05:00,60.7,59.0,29.98,SSW,194,0.0,1.0,94,0.00,,,0.00,Wunderground v.1.15,2013-04-30 05:05:00,
2013-04-30 01:10:00,60.6,58.9,29.98,SSW,194,0.0,1.0,94,0.00,,,0.00,Wunderground v.1.15,2013-04-30 05:10:00,
2013-04-30 01:15:00,60.5,58.8,29.97,SSW,194,0.0,1.0,94,0.00,,,0.00,Wunderground v.1.15,2013-04-30 05:15:00,
2013-04-30 01:20:00,60.4,59.0,29.97,SSW,194,0.0,1.0,95,0.00,,,0.00,Wunderground v.1.15,2013-04-30 05:20:00,
2013-04-30 01:30:00,60.3,58.9,29.98,SSW,194,0.0,1.0,95,0.00,,,0.00,Wunderground v.1.15,2013-04-30 05:30:00,
2013-04-30 01:35:00,60.2,58.8,29.98,SSW,194,0.0,1.0,95,0.00,,,0.00,Wunderground v.1.15,2013-04-30 05:35:00,
2013-04-30 01:40:00,60.2,58.8,29.97,SSW,194,0.0,1.0,95,0.00,,,0.00,Wunderground v.1.15,2013-04-30 05:40:00,
2013-04-30 01:45:00,60.1,58.7,29.97,SSW,194,0.0,1.0,95,0.00,,,0.00,Wunderground v.1.15,2013-04-30 05:45:00,
2013-04-30 01:50:00,60.1,58.7,29.97,SSW,194,0.0,1.0,95,0.00,,,0.00,Wunderground v.1.15,2013-04-30 05:50:00,
2013-04-30 01:55:00,60.0,58.6,29.97,SSW,194,0.0,1.0,95,0.00,,,0.00,Wunderground v.1.15,2013-04-30 05:55:00,
2013-04-30 02:05:00,60.0,58.6,29.97,SSW,194,0.0,1.0,95,0.00,,,0.00,Wunderground v.1.15,2013-04-30 06:05:00,
2013-04-30 02:10:00,59.9,58.5,29.97,SSW,194,0.0,1.0,95,0.00,,,0.00,Wunderground v.1.15,2013-04-30 06:10:00,
2013-04-30 02:15:00,59.9,58.5,29.97,SSW,194,0.0,1.0,95,0.00,,,0.00,Wunderground v.1.15,2013-04-30 06:15:00,
2013-04-30 02:20:00,59.9,58.5,29.97,SSW,194,0.0,1.0,95,0.00,,,0.00,Wunderground v.1.15,2013-04-30 06:20:00,
2013-04-30 02:25:00,59.8,58.4,29.96,SSW,194,0.0,1.0,95,0.00,,,0.00,Wunderground v.1.15,2013-04-30 06:25:00,
2013-04-30 02:35:00,59.7,58.6,29.97,SSW,194,0.0,1.0,96,0.00,,,0.00,Wunderground v.1.15,2013-04-30 06:35:00,
2013-04-30 02:40:00,59.7,58.6,29.97,SSW,194,0.0,1.0,96,0.00,,,0.00,Wunderground v.1.15,2013-04-30 06:40:00,
2013-04-30 02:45:00,59.6,58.2,29.97,SSW,194,0.0,1.0,95,0.00,,,0.00,Wunderground v.1.15,2013-04-30 06:45:00,
2013-04-30 02:50:00,59.6,58.5,29.97,SSW,194,0.0,1.0,96,0.00,,,0.00,Wunderground v.1.15,2013-04-30 06:50:00,
2013-04-30 02:55:00,59.5,58.4,29.97,SSW,194,0.0,1.0,96,0.00,,,0.00,Wunderground v.1.15,2013-04-30 06:55:00,
2013-04-30 03:05:00,59.4,58.3,29.97,SSW,194,0.0,1.0,96,0.00,,,0.00,Wunderground v.1.15,2013-04-30 07:05:00,
2013-04-30 03:10:00,59.4,58.3,29.97,SSW,194,0.0,1.0,96,0.00,,,0.00,Wunderground v.1.15,2013-04-30 07:10:00,
2013-04-30 03:15:00,59.5,58.4,29.97,SSW,194,0.0,1.0,96,0.00,,,0.00,Wunderground v.1.15,2013-04-30 07:15:00,
2013-04-30 03:20:00,59.5,58.4,29.97,SSW,194,0.0,1.0,96,0.00,,,0.00,Wunderground v.1.15,2013-04-30 07:20:00,
2013-04-30 03:25:00,59.5,58.4,29.98,SSW,194,0.0,1.0,96,0.00,,,0.00,Wunderground v.1.15,2013-04-30 07:25:00,
2013-04-30 03:35:00,59.5,58.4,29.98,SSW,194,0.0,1.0,96,0.00,,,0.00,Wunderground v.1.15,2013-04-30 07:35:00,
2013-04-30 03:40:00,59.6,58.5,29.98,SSW,194,0.0,1.0,96,0.00,,,0.00,Wunderground v.1.15,2013-04-30 07:40:00,
2013-04-30 03:45:00,59.6,58.5,29.98,SSW,194,0.0,1.0,96,0.00,,,0.00,Wunderground v.1.15,2013-04-30 07:45:00,
2013-04-30 03:55:00,59.7,58.8,29.97,SSW,194,0.0,1.0,97,0.00,,,0.00,Wunderground v.1.15,2013-04-30 07:55:00,
2013-04-30 04:00:00,59.7,58.8,29.98,SSW,194,0.0,1.0,97,0.00,,,0.00,Wunderground v.1.15,2013-04-30 08:00:00,
2013-04-30 04:10:00,59.9,59.0,29.98,SSW,194,0.0,1.0,97,0.00,,,0.00,Wunderground v.1.15,2013-04-30 08:10:00,
2013-04-30 04:15:00,59.9,59.0,29.98,SSW,194,0.0,1.0,97,0.00,,,0.00,Wunderground v.1.15,2013-04-30 08:15:00,
2013-04-30 04:20:00,59.9,59.0,29.98,SSW,194,0.0,1.0,97,0.00,,,0.00,Wunderground v.1.15,2013-04-30 08:20:00,
2013-04-30 04:25:00,60.0,59.1,29.98,SSW,194,0.0,1.0,97,0.00,,,0.00,Wunderground v.1.15,2013-04-30 08:25:00,
2013-04-30 04:30:00,60.1,59.2,29.98,SSW,194,0.0,1.0,97,0.00,,,0.00,Wunderground v.1.15,2013-04-30 08:30:00,
2013-04-30 04:40:00,60.2,59.3,29.98,SSW,194,0.0,1.0,97,0.00,,,0.00,Wunderground v.1.15,2013-04-30 08:40:00,
2013-04-30 04:45:00,60.2,59.3,29.99,SSW,194,0.0,1.0,97,0.00,,,0.00,Wunderground v.1.15,2013-04-30 08:45:00,
2013-04-30 04:50:00,60.2,59.3,29.99,SSW,194,0.0,1.0,97,0.00,,,0.00,Wunderground v.1.15,2013-04-30 08:50:00,
2013-04-30 04:55:00,60.2,59.3,29.99,SSW,194,0.0,1.0,97,0.00,,,0.00,Wunderground v.1.15,2013-04-30 08:55:00,
2013-04-30 05:00:00,60.2,59.3,29.99,SSW,194,0.0,1.0,97,0.00,,,0.00,Wunderground v.1.15,2013-04-30 09:00:00,
2013-04-30 05:10:00,60.3,59.4,29.99,SSW,194,0.0,1.0,97,0.00,,,0.00,Wunderground v.1.15,2013-04-30 09:10:00,
2013-04-30 05:15:00,60.3,59.4,29.99,SSW,194,0.0,1.0,97,0.00,,,0.00,Wunderground v.1.15,2013-04-30 09:15:00,
2013-04-30 05:20:00,60.3,59.4,30.00,SSW,194,0.0,1.0,97,0.00,,,0.00,Wunderground v.1.15,2013-04-30 09:20:00,
2013-04-30 05:25:00,60.3,59.4,29.99,SSW,194,0.0,1.0,97,0.00,,,0.00,Wunderground v.1.15,2013-04-30 09:25:00,
2013-04-30 05:30:00,60.4,59.5,30.00,SSW,194,0.0,1.0,97,0.00,,,0.00,Wunderground v.1.15,2013-04-30 09:30:00,
2013-04-30 05:40:00,60.4,59.5,30.00,SSW,194,0.0,1.0,97,0.00,,,0.00,Wunderground v.1.15,2013-04-30 09:40:00,
2013-04-30 05:50:00,60.5,59.6,30.00,SSW,194,0.0,1.0,97,0.00,,,0.00,Wunderground v.1.15,2013-04-30 09:50:00,
2013-04-30 05:55:00,60.5,59.6,30.00,SSW,194,0.0,1.0,97,0.00,,,0.00,Wunderground v.1.15,2013-04-30 09:55:00,
2013-04-30 06:00:00,60.5,59.6,30.00,SSW,194,0.0,1.0,97,0.00,,,0.00,Wunderground v.1.15,2013-04-30 10:00:00,
2013-04-30 06:05:00,60.5,59.6,30.00,SSW,194,0.0,1.0,97,0.00,,,0.00,Wunderground v.1.15,2013-04-30 10:05:00,
2013-04-30 06:15:00,60.5,59.6,30.00,SSW,194,0.0,1.0,97,0.00,,,0.00,Wunderground v.1.15,2013-04-30 10:15:00,
2013-04-30 06:20:00,60.5,59.6,30.01,SSW,194,0.0,1.0,97,0.00,,,0.00,Wunderground v.1.15,2013-04-30 10:20:00,
2013-04-30 06:25:00,60.5,59.6,30.01,SSW,194,0.0,1.0,97,0.00,,,0.00,Wunderground v.1.15,2013-04-30 10:25:00,
2013-04-30 06:30:00,60.5,59.6,30.01,SSW,194,0.0,1.0,97,0.00,,,0.00,Wunderground v.1.15,2013-04-30 10:30:00,
2013-04-30 06:40:00,60.5,59.6,30.02,SSW,194,0.0,1.0,97,0.00,,,0.00,Wunderground v.1.15,2013-04-30 10:40:00,
2013-04-30 06:45:00,60.5,59.9,30.02,SSW,194,0.0,1.0,98,0.00,,,0.00,Wunderground v.1.15,2013-04-30 10:45:00,
2013-04-30 06:50:00,60.6,60.0,30.02,SSW,194,0.0,1.0,98,0.00,,,0.00,Wunderground v.1.15,2013-04-30 10:50:00,
2013-04-30 06:55:00,60.6,60.0,30.02,SSW,194,0.0,1.0,98,0.00,,,0.00,Wunderground v.1.15,2013-04-30 10:55:00,
2013-04-30 07:00:00,60.6,60.0,30.02,SSW,194,0.0,1.0,98,0.00,,,0.00,Wunderground v.1.15,2013-04-30 11:00:00,
2013-04-30 07:05:00,60.6,60.0,30.03,SSW,194,0.0,1.0,98,0.00,,,0.00,Wunderground v.1.15,2013-04-30 11:05:00,
2013-04-30 07:15:00,60.7,60.1,30.03,SSW,194,0.0,1.0,98,0.00,,,0.00,Wunderground v.1.15,2013-04-30 11:15:00,
2013-04-30 07:20:00,60.7,60.1,30.03,SSW,194,0.0,1.0,98,0.00,,,0.00,Wunderground v.1.15,2013-04-30 11:20:00,
2013-04-30 07:25:00,60.7,60.1,30.04,SSW,194,0.0,1.0,98,0.00,,,0.00,Wunderground v.1.15,2013-04-30 11:25:00,
2013-04-30 07:30:00,60.8,60.2,30.04,SSW,194,0.0,1.0,98,0.00,,,0.00,Wunderground v.1.15,2013-04-30 11:30:00,
2013-04-30 07:35:00,60.8,60.2,30.04,SSW,194,0.0,1.0,98,0.00,,,0.00,Wunderground v.1.15,2013-04-30 11:35:00,
2013-04-30 07:45:00,60.9,60.3,30.04,SSW,194,0.0,1.0,98,0.00,,,0.00,Wunderground v.1.15,2013-04-30 11:45:00,
2013-04-30 07:50:00,60.9,60.3,30.04,SSW,194,0.0,1.0,98,0.00,,,0.00,Wunderground v.1.15,2013-04-30 11:50:00,
2013-04-30 07:55:00,61.1,60.5,30.04,SSW,194,0.0,1.0,98,0.00,,,0.00,Wunderground v.1.15,2013-04-30 11:55:00,
2013-04-30 08:05:00,61.2,60.6,30.04,SSW,194,0.0,1.0,98,0.00,,,0.00,Wunderground v.1.15,2013-04-30 12:05:00,
2013-04-30 08:10:00,61.3,60.7,30.04,SSW,194,0.0,1.0,98,0.00,,,0.00,Wunderground v.1.15,2013-04-30 12:10:00,
2013-04-30 08:20:00,61.5,60.9,30.04,SSW,194,0.0,1.0,98,0.00,,,0.00,Wunderground v.1.15,2013-04-30 12:20:00,
2013-04-30 08:25:00,61.6,61.0,30.04,SSW,194,0.0,1.0,98,0.00,,,0.00,Wunderground v.1.15,2013-04-30 12:25:00,
2013-04-30 08:30:00,61.7,61.1,30.05,SSW,194,0.0,1.0,98,0.00,,,0.00,Wunderground v.1.15,2013-04-30 12:30:00,
2013-04-30 08:35:00,61.7,61.1,30.05,SSW,194,0.0,1.0,98,0.00,,,0.00,Wunderground v.1.15,2013-04-30 12:35:00,
2013-04-30 08:40:00,61.8,61.2,30.05,SSW,194,0.0,1.0,98,0.00,,,0.00,Wunderground v.1.15,2013-04-30 12:40:00,
2013-04-30 08:50:00,61.9,61.3,30.05,SSW,194,0.0,1.0,98,0.00,,,0.00,Wunderground v.1.15,2013-04-30 12:50:00,
2013-04-30 08:55:00,62.0,61.4,30.05,SSW,194,0.0,1.0,98,0.00,,,0.00,Wunderground v.1.15,2013-04-30 12:55:00,
2013-04-30 09:00:00,62.2,61.6,30.05,SSW,194,0.0,1.0,98,0.00,,,0.00,Wunderground v.1.15,2013-04-30 13:00:00,
2013-04-30 09:05:00,62.3,61.7,30.05,SSW,194,0.0,1.0,98,0.00,,,0.00,Wunderground v.1.15,2013-04-30 13:05:00,
2013-04-30 09:10:00,62.4,61.8,30.05,SSW,194,0.0,1.0,98,0.00,,,0.00,Wunderground v.1.15,2013-04-30 13:10:00,
2013-04-30 09:20:00,62.6,62.0,30.05,SSW,194,0.0,1.0,98,0.00,,,0.00,Wunderground v.1.15,2013-04-30 13:20:00,
2013-04-30 09:25:00,62.8,62.2,30.05,SSW,194,0.0,1.0,98,0.00,,,0.00,Wunderground v.1.15,2013-04-30 13:25:00,
2013-04-30 09:30:00,62.9,62.3,30.05,SSW,194,0.0,1.0,98,0.00,,,0.00,Wunderground v.1.15,2013-04-30 13:30:00,
2013-04-30 09:35:00,62.9,62.3,30.05,SSW,194,0.0,1.0,98,0.00,,,0.00,Wunderground v.1.15,2013-04-30 13:35:00,
2013-04-30 09:40:00,63.0,62.4,30.05,SSW,194,0.0,1.0,98,0.00,,,0.00,Wunderground v.1.15,2013-04-30 13:40:00,
2013-04-30 09:50:00,63.1,62.5,30.06,ESE,105,0.0,1.0,98,0.00,,,0.00,Wunderground v.1.15,2013-04-30 13:50:00,
2013-04-30 09:55:00,63.2,62.6,30.06,ESE,105,0.0,1.0,98,0.00,,,0.00,Wunderground v.1.15,2013-04-30 13:55:00,
2013-04-30 10:00:00,63.3,62.7,30.06,ESE,105,0.0,1.0,98,0.00,,,0.00,Wunderground v.1.15,2013-04-30 14:00:00,
2013-04-30 10:05:00,63.4,62.8,30.06,ESE,105,0.0,1.0,98,0.00,,,0.00,Wunderground v.1.15,2013-04-30 14:05:00,
2013-04-30 10:10:00,63.5,62.9,30.06,ESE,105,0.0,1.0,98,0.00,,,0.00,Wunderground v.1.15,2013-04-30 14:10:00,
2013-04-30 10:15:00,63.7,62.8,30.06,ESE,105,0.0,1.0,97,0.00,,,0.00,Wunderground v.1.15,2013-04-30 14:15:00,
2013-04-30 10:25:00,63.9,63.0,30.06,East,99,0.0,1.0,97,0.00,,,0.00,Wunderground v.1.15,2013-04-30 14:25:00,
2013-04-30 10:30:00,64.0,63.1,30.06,East,99,0.0,1.0,97,0.00,,,0.00,Wunderground v.1.15,2013-04-30 14:30:00,
2013-04-30 10:35:00,64.1,63.2,30.06,East,100,0.0,1.0,97,0.00,,,0.00,Wunderground v.1.15,2013-04-30 14:35:00,
2013-04-30 10:40:00,64.2,63.0,30.06,ESE,102,0.0,1.0,96,0.00,,,0.00,Wunderground v.1.15,2013-04-30 14:40:00,
2013-04-30 10:45:00,64.4,63.2,30.06,ESE,102,0.0,1.0,96,0.00,,,0.00,Wunderground v.1.15,2013-04-30 14:45:00,
2013-04-30 10:55:00,65.4,63.6,30.06,NE,43,0.0,1.0,94,0.00,,,0.00,Wunderground v.1.15,2013-04-30 14:55:00,
2013-04-30 11:00:00,65.4,63.3,30.06,ENE,73,0.0,1.0,93,0.00,,,0.00,Wunderground v.1.15,2013-04-30 15:00:00,
2013-04-30 11:05:00,65.4,63.0,30.06,ENE,78,0.0,1.0,92,0.00,,,0.00,Wunderground v.1.15,2013-04-30 15:05:00,
2013-04-30 11:15:00,65.4,63.0,30.07,SSE,149,0.0,1.0,92,0.00,,,0.00,Wunderground v.1.15,2013-04-30 15:15:00,
2013-04-30 11:20:00,65.7,63.3,30.07,South,186,0.0,1.0,92,0.00,,,0.00,Wunderground v.1.15,2013-04-30 15:20:00,
2013-04-30 11:25:00,66.1,63.1,30.06,ESE,106,0.0,1.0,90,0.00,,,0.00,Wunderground v.1.15,2013-04-30 15:25:00,
2013-04-30 11:30:00,66.5,63.5,30.07,ESE,106,0.0,1.0,90,0.00,,,0.00,Wunderground v.1.15,2013-04-30 15:30:00,
2013-04-30 11:35:00,66.5,63.2,30.06,East,100,0.0,1.0,89,0.00,,,0.00,Wunderground v.1.15,2013-04-30 15:35:00,
2013-04-30 11:40:00,66.4,63.1,30.06,NE,50,1.0,3.0,89,0.00,,,0.00,Wunderground v.1.15,2013-04-30 15:40:00,
2013-04-30 11:45:00,66.4,62.7,30.07,East,89,1.0,3.0,88,0.00,,,0.00,Wunderground v.1.15,2013-04-30 15:45:00,
2013-04-30 11:55:00,66.3,62.6,30.07,NE,46,0.0,1.0,88,0.00,,,0.00,Wunderground v.1.15,2013-04-30 15:55:00,
2013-04-30 12:00:00,66.3,62.6,30.07,ESE,107,0.0,1.0,88,0.00,,,0.00,Wunderground v.1.15,2013-04-30 16:00:00,
2013-04-30 12:05:00,66.2,62.5,30.06,ESE,103,1.0,1.0,88,0.00,,,0.00,Wunderground v.1.15,2013-04-30 16:05:00,
2013-04-30 12:15:00,66.2,62.9,30.07,ESE,106,0.0,2.0,89,0.00,,,0.00,Wunderground v.1.15,2013-04-30 16:15:00,
2013-04-30 12:20:00,65.9,62.9,30.06,ENE,60,0.0,1.0,90,0.00,,,0.00,Wunderground v.1.15,2013-04-30 16:20:00,
2013-04-30 12:25:00,65.9,62.9,30.06,ENE,60,0.0,1.0,90,0.00,,,0.00,Wunderground v.1.15,2013-04-30 16:25:00,
2013-04-30 12:30:00,65.9,62.9,30.06,NE,49,0.0,1.0,90,0.00,,,0.00,Wunderground v.1.15,2013-04-30 16:30:00,
2013-04-30 12:35:00,66.6,62.9,30.06,East,99,0.0,1.0,88,0.00,,,0.00,Wunderground v.1.15,2013-04-30 16:35:00,
2013-04-30 12:45:00,67.4,64.0,30.06,ESE,113,0.0,1.0,89,0.00,,,0.00,Wunderground v.1.15,2013-04-30 16:45:00,
2013-04-30 12:50:00,67.3,63.3,30.06,WNW,282,0.0,1.0,87,0.00,,,0.00,Wunderground v.1.15,2013-04-30 16:50:00,